Latest Weather Observations for Walpole North

IDW60801

Issued at 9:33 am WST Thursday 21 March 2019 (issued every 10 minutes, with the page automatically refreshed every 10 minutes)

About weather observations | Map of weather stations | Latest weather observations for WA | Other Formats
Station Details ID: 009998 Name: NORTH WALPOLE Lat: -34.95 Lon: 116.72 Height: 73.0 m
Data from the previous 72 hours. | See also: Recent months at Walpole North
Date/Time
WST
Temp
°C
App
Temp
°C
Dew
Point
°C
Rel
Hum
%
Delta-T
°C
Wind Press
QNH
hPa
Press
MSL
hPa
Rain since
9am
mm
Dir  Spd
km/h
Gust
km/h
Spd
kts
Gust
kts
21/09:30am 18.6 17.5 18.6 100 0.0 ESE 22 39 12 21 1014.4 1014.2 0.2
21/09:00am 18.7 18.0 18.7 100 0.0 SE 20 28 11 15 1014.1 1013.9 2.8
21/08:30am 18.4 18.2 18.4 100 0.0 SE 17 22 9 12 1014.5 1014.3 2.8
21/08:00am 18.3 17.6 18.3 100 0.0 ESE 19 24 10 13 1014.5 1014.3 2.8
21/07:30am 18.2 18.2 18.2 100 0.0 ESE 15 24 8 13 1015.0 1014.8 2.8
21/07:00am 18.2 18.2 18.2 100 0.0 SE 15 22 8 12 1014.5 1014.3 2.8
21/06:30am 18.2 17.5 18.2 100 0.0 SE 19 24 10 13 1014.0 1013.8 2.6
21/06:00am 18.2 18.6 18.2 100 0.0 ESE 13 19 7 10 1014.1 1013.9 2.4
21/05:30am 18.3 17.4 18.3 100 0.0 SE 20 28 11 15 1013.4 1013.2 2.4
21/05:00am 18.3 18.4 18.3 100 0.0 SE 15 24 8 13 1013.6 1013.4 2.4
21/04:30am 18.3 18.4 18.3 100 0.0 SE 15 24 8 13 1013.6 1013.4 2.4
21/04:00am 18.1 17.7 18.1 100 0.0 SE 17 24 9 13 1013.4 1013.2 2.4
21/03:30am 18.1 17.7 18.1 100 0.0 ESE 17 24 9 13 1013.6 1013.4 2.4
21/03:00am 18.1 18.5 18.1 100 0.0 SE 13 19 7 10 1013.9 1013.7 2.2
21/02:30am 18.1 18.1 18.1 100 0.0 ESE 15 22 8 12 1014.3 1014.1 2.2
21/02:00am 18.1 18.1 18.1 100 0.0 ESE 15 20 8 11 1014.5 1014.3 2.2
21/01:30am 18.0 18.0 18.0 100 0.0 ESE 15 22 8 12 1014.8 1014.6 2.2
21/01:00am 18.0 18.0 18.0 100 0.0 SE 15 22 8 12 1014.9 1014.7 2.0
21/12:30am 18.0 18.0 18.0 100 0.0 ESE 15 22 8 12 1015.3 1015.1 1.8
21/12:00am 18.0 17.6 18.0 100 0.0 ESE 17 24 9 13 1015.1 1014.9 1.8
 
Date/Time
WST
Temp
°C
App
Temp
°C
Dew
Point
°C
Rel
Hum
%
Delta-T
°C
Wind Press
QNH
hPa
Press
MSL
hPa
Rain since
9am
mm
Dir  Spd
km/h
Gust
km/h
Spd
kts
Gust
kts
20/11:30pm 18.0 17.2 18.0 100 0.0 SE 19 28 10 15 1015.2 1015.0 1.8
20/11:00pm 18.0 17.2 18.0 100 0.0 ESE 19 28 10 15 1015.7 1015.5 1.8
20/10:30pm 18.1 17.2 18.1 100 0.0 SE 20 32 11 17 1015.9 1015.7 1.6
20/10:00pm 18.0 17.2 18.0 100 0.0 SE 19 28 10 15 1016.1 1015.9 1.6
20/09:30pm 18.0 16.6 18.0 100 0.0 SE 22 30 12 16 1016.2 1016.0 1.4
20/09:00pm 18.0 16.3 18.0 100 0.0 SE 24 32 13 17 1016.0 1015.8 1.4
20/08:30pm 18.0 17.0 18.0 100 0.0 SE 20 32 11 17 1016.0 1015.8 1.4
20/08:00pm 18.0 17.6 18.0 100 0.0 SE 17 20 9 11 1016.2 1016.0 1.2
20/07:30pm 17.9 17.1 17.9 100 0.0 SE 19 28 10 15 1015.7 1015.5 1.0
20/07:00pm 17.9 17.4 17.9 100 0.0 SE 17 22 9 12 1015.4 1015.2 0.8
20/06:30pm 17.8 16.9 17.8 100 0.0 SE 19 28 10 15 1015.2 1015.0 0.8
20/06:00pm 17.9 17.4 17.9 100 0.0 SE 17 24 9 13 1015.2 1015.0 0.6
20/05:30pm 18.0 18.0 18.0 100 0.0 SE 15 26 8 14 1014.9 1014.7 0.4
20/05:00pm 18.1 17.3 18.1 100 0.0 SE 19 30 10 16 1014.7 1014.5 0.4
20/04:30pm 18.0 17.2 18.0 100 0.0 SE 19 26 10 14 1014.7 1014.5 0.2
20/04:00pm 18.1 17.7 18.1 100 0.0 SE 17 22 9 12 1014.8 1014.6 0.0
20/03:30pm 18.3 17.4 18.3 100 0.0 SE 20 30 11 16 1014.6 1014.4 0.0
20/03:00pm 18.6 17.9 18.6 100 0.0 SE 20 28 11 15 1014.6 1014.4 0.0
20/02:30pm 19.1 19.5 19.1 100 0.0 SSE 15 28 8 15 1014.5 1014.3 0.0
20/02:00pm 19.2 19.3 19.2 100 0.0 SE 17 24 9 13 1014.8 1014.6 0.0
20/01:30pm 19.3 19.5 19.3 100 0.0 SSE 17 22 9 12 1014.8 1014.6 0.0
20/01:00pm 19.7 20.4 19.7 100 0.0 SSE 15 22 8 12 1014.9 1014.7 0.0
20/12:30pm 19.4 20.0 19.4 100 0.0 SE 15 22 8 12 1015.1 1014.9 0.0
20/12:00pm 19.1 19.9 19.1 100 0.0 SSE 13 20 7 11 1015.4 1015.2 0.0
20/11:30am 19.1 20.3 19.1 100 0.0 SSE 11 19 6 10 1015.6 1015.4 0.0
20/11:00am 18.8 19.9 18.8 100 0.0 SSE 11 17 6 9 1015.8 1015.6 0.0
20/10:30am 18.8 20.6 18.8 100 0.0 SSE 7 15 4 8 1015.9 1015.7 0.0
20/10:00am 18.5 20.2 18.5 100 0.0 SSE 7 13 4 7 1016.0 1015.8 0.0
20/09:30am 18.4 19.7 18.4 100 0.0 SSE 9 17 5 9 1015.7 1015.5 0.0
20/09:00am 18.2 19.4 18.2 100 0.0 SSE 9 17 5 9 1015.4 1015.2 0.2
20/08:30am 18.1 19.2 18.1 100 0.0 SSE 9 17 5 9 1015.2 1015.0 0.2
20/08:00am 18.1 19.2 18.1 100 0.0 SSE 9 19 5 10 1014.9 1014.7 0.0
20/07:30am 18.2 19.8 18.2 100 0.0 SSE 7 13 4 7 1014.7 1014.5 0.0
20/07:00am 18.1 19.2 18.1 100 0.0 SSE 9 17 5 9 1014.5 1014.3 0.0
20/06:30am 18.2 19.0 18.2 100 0.0 SSE 11 20 6 11 1014.0 1013.8 0.0
20/06:00am 18.3 19.5 18.3 100 0.0 SSE 9 17 5 9 1013.8 1013.6 0.0
20/05:30am 18.4 20.1 18.4 100 0.0 SSE 7 17 4 9 1013.6 1013.4 0.0
20/05:00am 18.5 20.2 18.5 100 0.0 SSE 7 17 4 9 1013.4 1013.2 0.0
20/04:30am 18.6 19.2 18.6 100 0.0 SSE 13 20 7 11 1013.3 1013.1 0.0
20/04:00am 18.7 20.5 18.7 100 0.0 SSW 7 15 4 8 1012.9 1012.7 0.0
20/03:30am 18.4 21.0 18.4 100 0.0 SSW 2 11 1 6 1012.6 1012.4 0.0
20/03:00am 18.5 20.4 18.5 100 0.0 SSW 6 9 3 5 1012.4 1012.2 0.0
20/02:30am 18.2 21.1 18.2 100 0.0 CALM 0 0 0 0 1012.2 1012.0 0.0
20/02:00am 18.2 20.3 18.2 100 0.0 WSW 4 6 2 3 1012.0 1011.8 0.0
20/01:30am 18.2 20.0 18.2 100 0.0 WSW 6 7 3 4 1012.1 1011.9 0.0
20/01:00am 18.3 19.9 18.3 100 0.0 WNW 7 9 4 5 1012.0 1011.8 0.0
20/12:30am 18.9 20.9 18.7 99 0.1 WNW 6 7 3 4 1011.7 1011.5 0.0
20/12:00am 18.8 21.1 18.6 99 0.1 WNW 4 7 2 4 1011.8 1011.6 0.0
 
Date/Time
WST
Temp
°C
App
Temp
°C
Dew
Point
°C
Rel
Hum
%
Delta-T
°C
Wind Press
QNH
hPa
Press
MSL
hPa
Rain since
9am
mm
Dir  Spd
km/h
Gust
km/h
Spd
kts
Gust
kts
19/11:30pm 18.5 19.7 18.3 99 0.1 W 9 15 5 8 1012.2 1012.0 0.0
19/11:00pm 20.3 21.3 17.7 85 1.6 N 9 13 5 7 1012.2 1012.0 0.0
19/10:30pm 19.7 22.0 19.4 98 0.2 NE 6 9 3 5 1012.9 1012.7 0.0
19/10:00pm 19.6 21.9 18.6 94 0.6 NW 4 7 2 4 1012.5 1012.3 0.0
19/09:30pm 20.5 22.2 18.4 88 1.3 NNE 7 15 4 8 1012.2 1012.0 0.0
19/09:00pm 20.1 21.8 18.1 88 1.2 NNE 6 9 3 5 1012.1 1011.9 0.0
19/08:30pm 20.6 23.4 18.0 85 1.6 CALM 0 0 0 0 1011.7 1011.5 0.0
19/08:00pm 21.0 23.0 17.8 82 2.0 ENE 4 9 2 5 1011.7 1011.5 0.0
19/07:30pm 21.3 22.2 17.5 79 2.3 NE 9 13 5 7 1011.8 1011.6 0.0
19/07:00pm 21.3 24.1 17.9 81 2.1 CALM 0 0 0 0 1010.8 1010.6 0.0
19/06:30pm 22.3 23.8 17.7 75 2.9 SE 6 7 3 4 1010.8 1010.6 0.0
19/06:00pm 23.2 24.8 17.9 72 3.3 SE 6 7 3 4 1010.3 1010.1 0.0
19/05:30pm 23.3 25.4 18.0 72 3.3 SSE 4 13 2 7 1010.3 1010.1 0.0
19/05:00pm 23.1 24.9 18.8 77 2.7 S 7 17 4 9 1009.8 1009.6 0.0
19/04:30pm 24.3 25.7 18.7 71 3.6 SSW 9 15 5 8 1009.4 1009.2 0.0
19/04:00pm 23.7 24.3 18.6 73 3.2 SE 13 22 7 12 1009.2 1009.0 0.0
19/03:30pm 22.9 24.0 18.0 74 3.1 S 9 17 5 9 1009.6 1009.4 0.0
19/03:00pm 23.5 23.3 17.5 69 3.7 S 15 24 8 13 1010.2 1010.0 0.0
19/02:30pm 24.1 24.9 18.1 69 3.8 S 11 22 6 12 1009.9 1009.7 0.0
19/02:00pm 25.7 25.5 17.6 61 5.1 S 15 24 8 13 1009.7 1009.5 0.0
19/01:30pm 26.8 27.0 18.6 60 5.2 S 15 24 8 13 1010.0 1009.8 0.0
19/01:00pm 26.3 26.4 18.4 61 5.0 SSE 15 28 8 15 1010.0 1009.8 0.0
19/12:30pm 27.1 26.8 17.3 55 6.2 SE 15 20 8 11 1010.1 1009.9 0.0
19/12:00pm 26.6 27.3 17.9 59 5.5 S 11 20 6 11 1010.4 1010.2 0.0
19/11:30am 26.5 27.1 18.6 62 5.1 SSW 13 22 7 12 1010.7 1010.5 0.0
19/11:00am 24.7 26.0 18.4 68 4.0 SSE 9 15 5 8 1011.0 1010.8 0.0
19/10:30am 22.5 23.0 18.3 77 2.6 SE 13 19 7 10 1011.4 1011.2 0.0
19/10:00am 23.9 25.0 17.2 66 4.2 SSW 7 13 4 7 1011.4 1011.2 0.0
19/09:30am 23.0 23.7 17.0 69 3.7 SSE 9 17 5 9 1011.3 1011.1 0.0
19/09:00am 27.6 28.2 16.9 52 6.7 SSW 9 15 5 8 1010.9 1010.7 0.0
19/08:30am 25.9 24.5 15.6 53 6.3 NNE 17 24 9 13 1010.4 1010.2 0.0
19/08:00am 25.2 23.5 14.6 51 6.3 NNE 17 28 9 15 1010.4 1010.2 0.0
19/07:30am 24.8 22.7 14.6 53 6.1 NNE 19 32 10 17 1010.5 1010.3 0.0
19/07:00am 24.1 21.6 14.2 54 5.9 NNE 20 30 11 16 1010.4 1010.2 0.0
19/06:30am 22.7 20.5 14.5 60 4.8 NNE 19 28 10 15 1010.3 1010.1 0.0
19/06:00am 22.0 20.6 14.6 63 4.4 NNE 15 24 8 13 1010.1 1009.9 0.0
19/05:30am 21.3 20.4 14.9 67 3.8 NE 13 20 7 11 1010.1 1009.9 0.0
19/05:00am 19.5 19.7 15.8 79 2.2 NE 9 19 5 10 1010.2 1010.0 0.0
19/04:30am 17.9 19.1 16.8 93 0.7 ENE 6 11 3 6 1010.2 1010.0 0.0
19/04:00am 18.3 18.4 16.6 90 1.0 NE 11 17 6 9 1010.4 1010.2 0.0
19/03:30am 18.1 19.2 17.9 99 0.1 NE 9 17 5 9 1010.4 1010.2 0.0
19/03:00am 17.8 18.7 17.6 99 0.1 NE 9 13 5 7 1010.7 1010.5 0.0
19/02:30am 17.8 18.0 17.6 99 0.1 ENE 13 19 7 10 1010.9 1010.7 0.0
19/02:00am 18.1 19.2 17.9 99 0.1 ENE 9 15 5 8 1011.4 1011.2 0.0
19/01:30am 18.5 19.4 17.5 94 0.6 ENE 9 15 5 8 1011.6 1011.4 0.0
19/01:00am 18.6 19.1 17.4 93 0.7 ENE 11 19 6 10 1011.6 1011.4 0.0
19/12:30am 18.7 18.8 17.5 93 0.7 ENE 13 20 7 11 1011.8 1011.6 0.0
19/12:00am 18.7 18.8 17.4 92 0.8 E 13 19 7 10 1012.0 1011.8 0.0
 
Date/Time
WST
Temp
°C
App
Temp
°C
Dew
Point
°C
Rel
Hum
%
Delta-T
°C
Wind Press
QNH
hPa
Press
MSL
hPa
Rain since
9am
mm
Dir  Spd
km/h
Gust
km/h
Spd
kts
Gust
kts
18/11:30pm 19.0 18.7 17.3 90 1.0 E 15 26 8 14 1012.3 1012.1 0.0
18/11:00pm 18.8 18.8 17.3 91 0.9 E 13 20 7 11 1012.9 1012.7 0.0
18/10:30pm 18.9 18.6 17.4 91 0.9 ENE 15 24 8 13 1013.0 1012.8 0.0
18/10:00pm 19.1 18.4 17.4 90 1.0 ENE 17 28 9 15 1013.3 1013.1 0.0
18/09:30pm 19.3 18.2 17.4 89 1.2 E 19 32 10 17 1013.5 1013.3 0.0
18/09:00pm 19.5 17.9 17.5 88 1.2 ENE 22 37 12 20 1013.9 1013.7 0.0
18/08:30pm 19.5 17.9 17.5 88 1.2 E 22 41 12 22 1013.5 1013.3 0.0
18/08:00pm 19.5 20.1 17.8 90 1.0 E 11 17 6 9 1014.1 1013.9 0.0
18/07:30pm 19.8 19.3 17.8 88 1.2 E 17 26 9 14 1013.4 1013.2 0.0
18/07:00pm 20.0 20.0 18.1 89 1.2 ESE 15 20 8 11 1013.1 1012.9 0.0
18/06:30pm 20.1 19.8 18.2 89 1.2 ESE 17 26 9 14 1012.8 1012.6 0.0
18/06:00pm 20.4 20.0 18.0 86 1.5 SE 17 24 9 13 1012.9 1012.7 0.0
18/05:30pm 21.4 21.9 18.4 83 1.9 SE 13 19 7 10 1013.0 1012.8 0.0
18/05:00pm 22.0 22.0 18.2 79 2.4 ESE 15 20 8 11 1012.7 1012.5 0.0
18/04:30pm 22.2 21.3 18.2 78 2.5 SE 20 26 11 14 1012.8 1012.6 0.0
18/04:00pm 23.6 23.0 18.5 73 3.2 SE 19 26 10 14 1012.7 1012.5 0.0
18/03:30pm 24.1 23.6 19.0 73 3.3 SE 20 30 11 16 1012.7 1012.5 0.0
18/03:00pm 24.9 23.9 18.8 69 3.9 SE 22 33 12 18 1012.8 1012.6 0.0
18/02:30pm 25.1 24.1 18.8 68 4.0 SE 22 30 12 16 1012.9 1012.7 0.0
18/02:00pm 26.6 26.0 18.5 61 5.2 ESE 19 28 10 15 1013.5 1013.3 0.0
18/01:30pm 26.4 26.7 18.8 63 4.9 E 15 24 8 13 1013.9 1013.7 0.0
18/01:00pm 25.0 24.2 18.0 65 4.4 ESE 19 28 10 15 1014.4 1014.2 0.0
18/12:30pm 24.7 23.9 17.9 66 4.3 E 19 30 10 16 1014.9 1014.7 0.0
18/12:00pm 24.0 23.6 18.0 69 3.8 E 17 26 9 14 1015.3 1015.1 0.0
18/11:30am 23.7 22.6 17.7 69 3.7 ENE 20 32 11 17 1016.0 1015.8 0.0
18/11:00am 22.3 21.0 16.8 71 3.4 ESE 19 26 10 14 1016.3 1016.1 0.0
18/10:30am 22.4 21.2 17.1 72 3.3 E 19 28 10 15 1016.9 1016.7 0.0
18/10:00am 22.1 20.5 17.5 75 2.8 E 22 33 12 18 1017.1 1016.9 0.0

Other formats

Comma delimited format used in spreadsheet applications
http://www.bom.gov.au/fwo/IDW60801/IDW60801.95647.axf

JavaScript Object Notation format (JSON) in row-major order
http://www.bom.gov.au/fwo/IDW60801/IDW60801.95647.json

Data quality

Most of these data are generated automatically and are frequently updated. Quality checks on data are not normally performed. It is possible for incorrect values to appear. Refer to information at About Latest Weather Observations and please check the disclaimer before using these data.